Time;durP1;ratioP1;P1;durP2;ratioP2;P2;SDS_P1;SDS_P2;PMS_P1;PMS_P2;Temp;Humidity;BMP_temperature;BMP_pressure;BME280_temperature;BME280_humidity;BME280_pressure;Samples;Min_cycle;Max_cycle;Signal;HPM_P1;HPM_P2
2023/04/05 00:01:06;;;;;;;;;;;18.60;50.80;;;;;;6245163;28;19916;-67
2023/04/05 00:04:06;;;;;;;;;;;18.60;50.70;;;;;;6245010;28;19917;-67
2023/04/05 00:07:07;;;;;;;;;;;18.60;50.60;;;;;;6245434;28;19955;-67
2023/04/05 00:10:08;;;;;;;;;;;18.60;50.70;;;;;;6245106;28;19920;-67
2023/04/05 00:13:08;;;;;;;;;;;18.50;50.60;;;;;;6227484;28;19910;-67
2023/04/05 00:16:09;;;;;;;;;;;18.60;50.70;;;;;;6227219;28;19913;-66
2023/04/05 00:19:11;;;;;;;;;;;18.50;50.70;;;;;;6227287;28;19917;-67
2023/04/05 00:22:11;;;;;;;;;;;18.50;50.70;;;;;;6244831;28;19932;-67
2023/04/05 00:25:12;;;;;;;;;;;18.50;50.60;;;;;;6244850;28;19917;-67
2023/04/05 00:28:12;;;;;;;;;;;18.60;50.50;;;;;;6246323;28;19941;-67
2023/04/05 00:31:13;;;;;;;;;;;18.50;50.60;;;;;;6269260;28;19992;-67
2023/04/05 00:34:14;;;;;;;;;;;18.50;50.70;;;;;;6269181;28;19913;-67
2023/04/05 00:37:14;;;;;;;;;;;18.50;50.70;;;;;;6269379;28;19959;-66
2023/04/05 00:40:15;;;;;;;;;;;18.50;50.50;;;;;;6269016;28;19913;-67
2023/04/05 00:43:15;;;;;;;;;;;18.50;50.70;;;;;;6269019;28;19917;-67
2023/04/05 00:46:16;;;;;;;;;;;18.50;50.20;;;;;;6269248;28;19916;-67
2023/04/05 00:49:17;;;;;;;;;;;18.50;50.60;;;;;;6251444;28;20006;-66
2023/04/05 00:52:22;;;;;;;;;;;18.50;50.60;;;;;;6268852;28;20047;-67
2023/04/05 00:55:22;;;;;;;;;;;18.50;50.60;;;;;;6234102;28;19909;-67
2023/04/05 00:58:23;;;;;;;;;;;18.50;50.60;;;;;;6243713;28;19920;-67
2023/04/05 01:01:25;;;;;;;;;;;18.50;50.40;;;;;;6244451;28;20371;-67
2023/04/05 01:04:29;;;;;;;;;;;18.50;50.40;;;;;;6268233;28;19963;-67
2023/04/05 01:07:44;;;;;;;;;;;18.50;50.30;;;;;;6268968;28;19995;-67
2023/04/05 01:10:50;;;;;;;;;;;18.50;50.70;;;;;;6268917;28;19908;-67
2023/04/05 01:13:56;;;;;;;;;;;18.50;50.60;;;;;;6268743;28;19912;-67
2023/04/05 01:16:57;;;;;;;;;;;18.50;50.60;;;;;;6268897;28;19913;-67
2023/04/05 01:19:59;;;;;;;;;;;18.50;50.60;;;;;;6268823;28;20378;-67
2023/04/05 01:23:38;;;;;;;;;;;18.50;50.30;;;;;;6268616;28;19913;-67
2023/04/05 01:26:45;;;;;;;;;;;18.50;50.30;;;;;;6167921;28;19910;-67
2023/04/05 01:29:45;;;;;;;;;;;18.50;50.50;;;;;;6191747;28;20008;-67
2023/04/05 01:32:46;;;;;;;;;;;18.50;50.50;;;;;;6268097;28;19913;-67
2023/04/05 01:35:52;;;;;;;;;;;18.50;50.30;;;;;;6268758;28;19908;-67
2023/04/05 01:38:53;;;;;;;;;;;18.50;50.40;;;;;;6268743;28;19909;-67
2023/04/05 01:41:58;;;;;;;;;;;18.50;50.50;;;;;;6250725;28;19916;-67
2023/04/05 01:44:58;;;;;;;;;;;18.50;51.30;;;;;;6250342;28;19913;-67
2023/04/05 01:47:59;;;;;;;;;;;18.50;50.60;;;;;;6268638;28;19916;-67
2023/04/05 01:51:00;;;;;;;;;;;18.50;50.30;;;;;;6268524;28;19909;-66
2023/04/05 01:54:00;;;;;;;;;;;18.50;50.40;;;;;;6268388;28;19916;-67
2023/04/05 01:57:01;;;;;;;;;;;18.50;50.10;;;;;;6268010;28;19925;-66
2023/04/05 02:00:03;;;;;;;;;;;18.50;50.40;;;;;;6268327;28;19919;-67
2023/04/05 02:03:03;;;;;;;;;;;18.50;50.20;;;;;;6267822;28;19967;-67
2023/04/05 02:06:04;;;;;;;;;;;18.50;50.40;;;;;;6250663;28;19917;-66
2023/04/05 02:09:05;;;;;;;;;;;18.50;50.40;;;;;;6269780;28;19917;-70
2023/04/05 02:12:05;;;;;;;;;;;18.50;50.50;;;;;;6254578;28;20027;-70
2023/04/05 02:15:06;;;;;;;;;;;18.50;50.60;;;;;;6268540;28;20117;-70
2023/04/05 02:18:08;;;;;;;;;;;18.50;50.40;;;;;;6247471;28;20003;-70
2023/04/05 02:21:09;;;;;;;;;;;18.50;50.50;;;;;;6229272;28;19913;-70
2023/04/05 02:24:10;;;;;;;;;;;18.50;50.60;;;;;;6246881;28;19939;-70
2023/04/05 02:27:10;;;;;;;;;;;18.50;50.30;;;;;;6266571;28;19908;-70
2023/04/05 02:30:12;;;;;;;;;;;18.50;50.30;;;;;;6269998;28;19963;-70
2023/04/05 02:33:13;;;;;;;;;;;18.50;50.30;;;;;;6246610;28;20392;-71
2023/04/05 02:36:13;;;;;;;;;;;18.50;50.40;;;;;;6247608;28;19908;-70
2023/04/05 02:39:14;;;;;;;;;;;18.50;50.20;;;;;;6271962;28;19916;-71
2023/04/05 02:42:15;;;;;;;;;;;18.50;50.20;;;;;;6271617;28;19916;-70
2023/04/05 02:45:15;;;;;;;;;;;18.50;50.40;;;;;;6271242;28;20360;-71
2023/04/05 02:48:16;;;;;;;;;;;18.50;50.60;;;;;;6271226;28;19917;-71
2023/04/05 02:51:16;;;;;;;;;;;18.50;50.20;;;;;;6253554;28;19917;-70
2023/04/05 02:54:17;;;;;;;;;;;18.50;50.60;;;;;;6253301;28;19913;-70
2023/04/05 02:57:17;;;;;;;;;;;18.50;50.40;;;;;;6251095;28;20058;-70
2023/04/05 03:00:18;;;;;;;;;;;18.50;50.20;;;;;;6246647;28;19909;-70
2023/04/05 03:03:20;;;;;;;;;;;18.50;50.20;;;;;;6245819;28;19917;-71
2023/04/05 03:06:21;;;;;;;;;;;18.50;50.30;;;;;;6246338;28;19909;-70
2023/04/05 03:09:22;;;;;;;;;;;18.50;50.20;;;;;;6246420;28;19916;-70
2023/04/05 03:12:22;;;;;;;;;;;18.50;50.40;;;;;;6246078;28;19909;-71
2023/04/05 03:15:24;;;;;;;;;;;18.50;50.60;;;;;;6245920;28;20395;-70
2023/04/05 03:18:25;;;;;;;;;;;18.50;50.50;;;;;;6268114;28;19920;-70
2023/04/05 03:21:28;;;;;;;;;;;18.50;50.50;;;;;;6265290;28;20450;-70
2023/04/05 03:24:29;;;;;;;;;;;18.50;50.20;;;;;;6245705;28;20429;-71
2023/04/05 03:27:30;;;;;;;;;;;18.50;50.50;;;;;;6245609;28;19913;-70
2023/04/05 03:30:31;;;;;;;;;;;18.50;50.60;;;;;;6245590;28;20311;-71
2023/04/05 03:33:32;;;;;;;;;;;18.50;50.50;;;;;;6245370;28;19998;-70
2023/04/05 03:36:42;;;;;;;;;;;18.50;50.30;;;;;;6245269;28;20290;-71
2023/04/05 03:39:42;;;;;;;;;;;18.50;50.40;;;;;;6227936;28;20264;-70
2023/04/05 03:42:44;;;;;;;;;;;18.50;50.40;;;;;;6245202;28;19917;-71
2023/04/05 03:45:44;;;;;;;;;;;18.50;50.50;;;;;;6245175;28;19966;-70
2023/04/05 03:48:45;;;;;;;;;;;18.50;50.30;;;;;;6245188;28;19916;-70
2023/04/05 03:51:46;;;;;;;;;;;18.50;50.60;;;;;;6245243;28;19910;-70
2023/04/05 03:54:46;;;;;;;;;;;18.50;50.30;;;;;;6227208;28;19921;-71
2023/04/05 03:57:47;;;;;;;;;;;18.50;50.20;;;;;;6227104;28;19948;-70
2023/04/05 04:00:48;;;;;;;;;;;18.50;50.60;;;;;;6244990;28;19916;-70
2023/04/05 04:03:48;;;;;;;;;;;18.50;50.50;;;;;;6226625;28;19978;-72
2023/04/05 04:06:49;;;;;;;;;;;18.50;50.40;;;;;;6246837;28;20372;-70
2023/04/05 04:09:50;;;;;;;;;;;18.50;50.50;;;;;;6269780;28;20421;-71
2023/04/05 04:12:50;;;;;;;;;;;18.50;50.60;;;;;;6269539;28;19916;-71
2023/04/05 04:15:51;;;;;;;;;;;18.40;50.40;;;;;;6269286;28;19967;-70
2023/04/05 04:18:53;;;;;;;;;;;18.50;50.60;;;;;;6233462;28;19913;-71
2023/04/05 04:21:54;;;;;;;;;;;18.40;50.30;;;;;;6244763;28;19916;-70
2023/04/05 04:24:55;;;;;;;;;;;18.50;50.40;;;;;;6244526;28;20556;-70
2023/04/05 04:27:56;;;;;;;;;;;18.50;50.50;;;;;;6244504;28;19916;-71
2023/04/05 04:30:56;;;;;;;;;;;18.50;50.10;;;;;;6243853;28;19921;-70
2023/04/05 04:33:57;;;;;;;;;;;18.50;50.20;;;;;;6259785;28;19912;-70
2023/04/05 04:36:59;;;;;;;;;;;18.50;50.60;;;;;;6244219;28;19914;-71
2023/04/05 04:40:02;;;;;;;;;;;18.50;50.60;;;;;;6268560;28;20379;-70
2023/04/05 04:43:03;;;;;;;;;;;18.50;50.50;;;;;;6261235;28;19964;-71
2023/04/05 04:46:09;;;;;;;;;;;18.50;50.50;;;;;;6226051;28;19991;-70
2023/04/05 04:49:10;;;;;;;;;;;18.50;50.50;;;;;;6259787;28;20349;-70
2023/04/05 04:52:10;;;;;;;;;;;18.50;50.50;;;;;;6268636;28;19924;-70
2023/04/05 04:55:14;;;;;;;;;;;18.50;50.50;;;;;;6245258;28;19909;-71
2023/04/05 04:58:15;;;;;;;;;;;18.50;50.60;;;;;;6243837;28;19917;-70
2023/04/05 05:01:16;;;;;;;;;;;18.50;50.60;;;;;;6243547;28;19916;-72
2023/04/05 05:04:16;;;;;;;;;;;18.50;50.60;;;;;;6243526;28;19929;-71
2023/04/05 05:07:18;;;;;;;;;;;18.50;50.50;;;;;;6243834;28;19909;-72
2023/04/05 05:10:19;;;;;;;;;;;18.40;50.30;;;;;;6240258;28;19909;-72
2023/04/05 05:13:19;;;;;;;;;;;18.50;50.40;;;;;;6252332;28;19924;-71
2023/04/05 05:16:22;;;;;;;;;;;18.50;50.40;;;;;;6267621;28;19938;-71
2023/04/05 05:19:22;;;;;;;;;;;18.50;50.30;;;;;;6249180;28;20296;-71
2023/04/05 05:22:23;;;;;;;;;;;18.50;50.20;;;;;;6200940;28;19916;-71
2023/04/05 05:25:23;;;;;;;;;;;18.50;50.60;;;;;;6226265;28;19952;-71
2023/04/05 05:28:25;;;;;;;;;;;18.50;50.50;;;;;;6238669;28;20296;-71
2023/04/05 05:31:28;;;;;;;;;;;18.50;50.60;;;;;;6258558;28;19916;-72
2023/04/05 05:34:28;;;;;;;;;;;18.50;50.70;;;;;;6245602;28;19936;-71
2023/04/05 05:37:30;;;;;;;;;;;18.50;50.50;;;;;;6245593;28;19913;-72
2023/04/05 05:40:30;;;;;;;;;;;18.40;50.40;;;;;;6257089;28;19910;-71
2023/04/05 05:43:31;;;;;;;;;;;18.50;50.70;;;;;;6245458;28;19913;-71
2023/04/05 05:46:32;;;;;;;;;;;18.50;50.60;;;;;;6229313;28;19910;-71
2023/04/05 05:49:32;;;;;;;;;;;18.50;50.40;;;;;;6210887;28;20284;-72
2023/04/05 05:52:34;;;;;;;;;;;18.50;50.70;;;;;;6228496;28;19941;-71
2023/04/05 05:55:35;;;;;;;;;;;18.40;50.40;;;;;;6246906;28;19913;-72
2023/04/05 05:58:36;;;;;;;;;;;18.50;50.70;;;;;;6231160;28;20360;-70
2023/04/05 06:01:41;;;;;;;;;;;18.50;50.80;;;;;;6243927;28;19913;-71
2023/04/05 06:04:42;;;;;;;;;;;18.50;50.70;;;;;;6250008;28;19917;-71
2023/04/05 06:07:43;;;;;;;;;;;18.50;50.60;;;;;;6249668;28;19997;-72
2023/04/05 06:10:44;;;;;;;;;;;18.40;50.30;;;;;;6249870;28;19913;-71
2023/04/05 06:13:45;;;;;;;;;;;18.40;50.40;;;;;;6232031;28;19913;-71
2023/04/05 06:16:45;;;;;;;;;;;18.40;50.40;;;;;;6232130;28;19909;-71
2023/04/05 06:19:46;;;;;;;;;;;18.40;50.40;;;;;;6231490;28;20327;-71
2023/04/05 06:22:46;;;;;;;;;;;18.40;50.50;;;;;;6249034;28;19921;-71
2023/04/05 06:25:47;;;;;;;;;;;18.40;50.50;;;;;;6249055;28;19913;-71
2023/04/05 06:28:48;;;;;;;;;;;18.50;50.50;;;;;;6249180;28;19910;-70
2023/04/05 06:31:49;;;;;;;;;;;18.40;50.40;;;;;;6248919;28;20442;-71
2023/04/05 06:34:49;;;;;;;;;;;18.40;50.10;;;;;;6230777;28;19909;-71
2023/04/05 06:37:50;;;;;;;;;;;18.50;50.60;;;;;;6248594;28;19916;-71
2023/04/05 06:40:51;;;;;;;;;;;18.40;50.50;;;;;;6249086;28;20294;-71
2023/04/05 06:43:51;;;;;;;;;;;18.40;50.50;;;;;;6230534;28;19913;-71
2023/04/05 06:46:52;;;;;;;;;;;18.40;50.40;;;;;;6248727;28;19910;-70
2023/04/05 06:49:52;;;;;;;;;;;18.40;50.40;;;;;;6248601;28;19917;-71
2023/04/05 06:52:53;;;;;;;;;;;18.40;50.50;;;;;;6248358;28;20047;-71
2023/04/05 06:55:57;;;;;;;;;;;18.40;50.20;;;;;;6229987;28;19917;-70
2023/04/05 06:58:58;;;;;;;;;;;18.40;50.50;;;;;;6248472;28;19909;-71
2023/04/05 07:01:59;;;;;;;;;;;18.40;50.50;;;;;;6248133;28;19959;-71
2023/04/05 07:05:04;;;;;;;;;;;18.40;50.30;;;;;;6247946;28;19924;-71
2023/04/05 07:08:04;;;;;;;;;;;18.40;50.40;;;;;;6248339;28;19932;-71
2023/04/05 07:11:05;;;;;;;;;;;18.40;50.40;;;;;;6248270;28;20387;-71
2023/04/05 07:14:06;;;;;;;;;;;18.40;50.50;;;;;;6248030;28;19916;-71
2023/04/05 07:17:06;;;;;;;;;;;18.40;50.30;;;;;;6268290;28;19939;-71
2023/04/05 07:20:08;;;;;;;;;;;18.40;50.50;;;;;;6254966;28;19916;-71
2023/04/05 07:23:09;;;;;;;;;;;18.40;50.50;;;;;;6272708;28;19919;-71
2023/04/05 07:26:11;;;;;;;;;;;18.40;50.60;;;;;;6254387;28;19909;-71
2023/04/05 07:29:11;;;;;;;;;;;18.40;50.10;;;;;;6272483;28;19909;-71
2023/04/05 07:32:12;;;;;;;;;;;18.40;50.10;;;;;;6253380;28;19916;-71
2023/04/05 07:35:13;;;;;;;;;;;18.40;50.50;;;;;;6248735;28;19968;-71
2023/04/05 07:38:13;;;;;;;;;;;18.40;50.40;;;;;;6239316;28;19909;-71
2023/04/05 07:41:17;;;;;;;;;;;18.40;50.10;;;;;;6247345;28;19909;-71
2023/04/05 07:44:17;;;;;;;;;;;18.40;50.10;;;;;;6228892;28;19913;-71
2023/04/05 07:47:19;;;;;;;;;;;18.40;50.50;;;;;;6247071;28;19980;-72
2023/04/05 07:50:20;;;;;;;;;;;18.40;50.50;;;;;;6247174;28;19949;-71
2023/04/05 07:53:20;;;;;;;;;;;18.40;50.50;;;;;;6246980;28;19909;-72
2023/04/05 07:56:22;;;;;;;;;;;18.40;50.40;;;;;;6229162;28;19968;-71
2023/04/05 07:59:23;;;;;;;;;;;18.40;50.10;;;;;;6229392;28;19979;-72
2023/04/05 08:02:23;;;;;;;;;;;18.40;50.30;;;;;;6246689;28;19948;-71
2023/04/05 08:05:26;;;;;;;;;;;18.40;50.40;;;;;;6246130;28;19917;-71
2023/04/05 08:08:27;;;;;;;;;;;18.40;50.40;;;;;;6229181;28;19928;-71
2023/04/05 08:11:27;;;;;;;;;;;18.40;50.40;;;;;;6246969;28;19959;-71
2023/04/05 08:14:28;;;;;;;;;;;18.40;50.40;;;;;;6228742;28;19909;-71
2023/04/05 08:17:29;;;;;;;;;;;18.40;50.30;;;;;;6246433;28;19963;-71
2023/04/05 08:20:29;;;;;;;;;;;18.40;50.30;;;;;;6246596;28;19909;-71
2023/04/05 08:23:30;;;;;;;;;;;18.40;50.30;;;;;;6246355;28;19913;-71
2023/04/05 08:26:31;;;;;;;;;;;18.40;50.10;;;;;;6246485;28;19909;-71
2023/04/05 08:29:32;;;;;;;;;;;18.40;50.30;;;;;;6228305;28;19921;-71
2023/04/05 08:32:33;;;;;;;;;;;18.40;50.40;;;;;;6228964;28;19910;-71
2023/04/05 08:35:36;;;;;;;;;;;18.40;50.20;;;;;;6246115;28;20268;-71
2023/04/05 08:38:37;;;;;;;;;;;18.40;50.30;;;;;;6229096;28;19913;-71
2023/04/05 08:41:40;;;;;;;;;;;18.40;50.50;;;;;;6246086;28;19909;-70
2023/04/05 08:44:40;;;;;;;;;;;18.40;50.40;;;;;;6228425;28;19924;-70
2023/04/05 08:47:41;;;;;;;;;;;18.40;50.30;;;;;;6245815;28;19910;-71
2023/04/05 08:50:52;;;;;;;;;;;18.40;50.30;;;;;;6228368;28;19936;-71
2023/04/05 08:53:52;;;;;;;;;;;18.40;50.40;;;;;;6228050;28;19912;-71
2023/04/05 08:56:53;;;;;;;;;;;18.40;50.40;;;;;;6227766;28;19924;-70
2023/04/05 08:59:54;;;;;;;;;;;18.40;50.30;;;;;;6228160;28;19917;-70
2023/04/05 09:02:56;;;;;;;;;;;18.40;50.40;;;;;;6227793;28;19917;-71
2023/04/05 09:05:57;;;;;;;;;;;18.40;50.30;;;;;;6245890;28;20307;-71
2023/04/05 09:08:58;;;;;;;;;;;18.40;50.30;;;;;;6228215;28;19913;-71
2023/04/05 09:12:00;;;;;;;;;;;18.40;50.40;;;;;;6246001;28;19955;-72
2023/04/05 09:15:01;;;;;;;;;;;18.40;50.40;;;;;;6245472;28;20644;-71
2023/04/05 09:18:02;;;;;;;;;;;18.40;50.40;;;;;;6247732;28;19916;-71
2023/04/05 09:21:03;;;;;;;;;;;18.40;50.40;;;;;;6250713;28;19916;-71
2023/04/05 09:24:04;;;;;;;;;;;18.40;50.40;;;;;;6250684;28;19925;-71
2023/04/05 09:27:15;;;;;;;;;;;18.40;50.30;;;;;;6232751;28;20327;-70
2023/04/05 09:30:22;;;;;;;;;;;18.40;50.40;;;;;;6251029;28;19996;-71
2023/04/05 09:33:23;;;;;;;;;;;18.40;50.40;;;;;;6244311;28;19909;-71
2023/04/05 09:36:24;;;;;;;;;;;18.40;50.20;;;;;;6255537;28;20005;-71
2023/04/05 09:39:29;;;;;;;;;;;18.40;50.30;;;;;;6250255;28;20455;-70
2023/04/05 09:42:41;;;;;;;;;;;18.40;50.40;;;;;;6250359;28;19909;-70
2023/04/05 09:45:42;;;;;;;;;;;18.40;50.40;;;;;;6249766;28;20430;-71
2023/04/05 09:48:46;;;;;;;;;;;18.40;50.40;;;;;;6232608;28;19909;-71
2023/04/05 09:51:47;;;;;;;;;;;18.40;50.40;;;;;;6250305;28;19913;-71
2023/04/05 09:54:50;;;;;;;;;;;18.40;50.30;;;;;;6232169;28;20387;-70
2023/04/05 09:57:50;;;;;;;;;;;18.40;50.40;;;;;;6249878;28;19917;-71
2023/04/05 10:00:52;;;;;;;;;;;18.40;50.40;;;;;;6249520;28;19917;-71
2023/04/05 10:03:52;;;;;;;;;;;18.40;50.10;;;;;;6249641;28;19924;-71
2023/04/05 10:06:53;;;;;;;;;;;18.40;50.40;;;;;;6249767;28;19909;-71
2023/04/05 10:09:55;;;;;;;;;;;18.40;50.40;;;;;;6231664;28;19916;-71
2023/04/05 10:12:56;;;;;;;;;;;18.40;50.30;;;;;;6249427;28;19914;-71
2023/04/05 10:15:59;;;;;;;;;;;18.40;50.30;;;;;;6249318;28;19968;-71
2023/04/05 10:19:01;;;;;;;;;;;18.40;50.30;;;;;;6231372;28;19909;-71
2023/04/05 10:22:05;;;;;;;;;;;18.40;50.30;;;;;;6249342;28;19916;-71
2023/04/05 10:25:12;;;;;;;;;;;18.40;50.40;;;;;;6248677;28;19964;-71
2023/04/05 10:28:13;;;;;;;;;;;18.40;50.30;;;;;;6231400;28;20040;-71
2023/04/05 10:31:22;;;;;;;;;;;18.40;50.40;;;;;;6230246;28;19909;-70
2023/04/05 10:34:41;;;;;;;;;;;18.40;50.40;;;;;;6248699;28;19909;-70
2023/04/05 10:38:08;;;;;;;;;;;18.40;50.10;;;;;;6249103;28;19937;-71
2023/04/05 10:41:09;;;;;;;;;;;18.40;50.40;;;;;;6248826;28;19964;-73
2023/04/05 10:44:10;;;;;;;;;;;18.40;50.30;;;;;;6230581;28;19913;-73
2023/04/05 10:47:13;;;;;;;;;;;18.40;50.40;;;;;;6248712;28;19920;-73
2023/04/05 10:50:19;;;;;;;;;;;18.40;50.40;;;;;;6248593;28;19909;-72
2023/04/05 10:53:20;;;;;;;;;;;18.40;50.40;;;;;;6248414;28;19927;-71
2023/04/05 10:56:21;;;;;;;;;;;18.40;50.40;;;;;;6248206;28;19968;-71
2023/04/05 10:59:22;;;;;;;;;;;18.40;50.40;;;;;;6238411;28;19912;-72
2023/04/05 11:02:23;;;;;;;;;;;18.40;50.30;;;;;;6272821;28;20382;-73
2023/04/05 11:05:33;;;;;;;;;;;18.40;50.40;;;;;;6272670;28;20439;-73
2023/04/05 11:08:34;;;;;;;;;;;18.40;50.30;;;;;;6272752;28;20291;-71
2023/04/05 11:11:38;;;;;;;;;;;18.40;50.40;;;;;;6272434;28;19940;-71
2023/04/05 11:14:39;;;;;;;;;;;18.40;50.40;;;;;;6272579;28;19909;-71
2023/04/05 11:17:40;;;;;;;;;;;18.40;50.40;;;;;;6272548;28;19916;-71
2023/04/05 11:20:51;;;;;;;;;;;18.40;50.30;;;;;;6272712;28;19909;-71
2023/04/05 11:24:02;;;;;;;;;;;18.40;50.30;;;;;;6269586;28;19913;-71
2023/04/05 11:27:08;;;;;;;;;;;18.40;50.30;;;;;;6247766;28;20394;-71
2023/04/05 11:30:09;;;;;;;;;;;18.40;50.30;;;;;;6229901;28;19909;-71
2023/04/05 11:33:10;;;;;;;;;;;18.40;50.20;;;;;;6248015;28;19909;-71
2023/04/05 11:36:11;;;;;;;;;;;18.40;50.20;;;;;;6247237;28;20332;-72
2023/04/05 11:39:21;;;;;;;;;;;18.40;50.30;;;;;;6248035;28;19909;-71
2023/04/05 11:42:21;;;;;;;;;;;18.40;50.30;;;;;;6263844;28;19921;-68
2023/04/05 11:45:22;;;;;;;;;;;18.40;50.30;;;;;;6244450;28;20362;-68
2023/04/05 11:48:23;;;;;;;;;;;18.40;50.20;;;;;;6248828;28;20368;-68
2023/04/05 11:51:25;;;;;;;;;;;18.40;50.10;;;;;;6261564;28;20261;-68
2023/04/05 11:54:32;;;;;;;;;;;18.40;48.00;;;;;;6247506;28;19909;-68
2023/04/05 11:57:36;;;;;;;;;;;18.40;47.50;;;;;;6270759;28;20201;-71
2023/04/05 12:00:37;;;;;;;;;;;18.40;47.40;;;;;;6252615;28;19929;-71
2023/04/05 12:03:37;;;;;;;;;;;18.30;47.30;;;;;;6227857;28;20016;-71
2023/04/05 12:06:38;;;;;;;;;;;18.40;47.50;;;;;;6246300;28;19956;-71
2023/04/05 12:09:59;;;;;;;;;;;18.40;46.70;;;;;;6255099;28;19999;-72
2023/04/05 12:12:59;;;;;;;;;;;18.40;44.60;;;;;;6270930;28;19909;-73
2023/04/05 12:16:02;;;;;;;;;;;18.40;45.10;;;;;;6253529;28;19909;-74
2023/04/05 12:19:02;;;;;;;;;;;18.30;46.00;;;;;;6267996;28;19959;-72
2023/04/05 12:22:03;;;;;;;;;;;18.30;45.90;;;;;;6247511;28;20256;-75
2023/04/05 12:25:04;;;;;;;;;;;18.30;46.30;;;;;;6228985;28;19952;-71
2023/04/05 12:28:07;;;;;;;;;;;18.30;47.40;;;;;;6246626;28;19917;-68
2023/04/05 12:31:09;;;;;;;;;;;18.30;46.60;;;;;;6245801;28;19917;-68
2023/04/05 12:34:11;;;;;;;;;;;18.30;47.10;;;;;;6245835;28;19943;-68
2023/04/05 12:37:12;;;;;;;;;;;18.30;46.10;;;;;;6266166;28;20330;-68
2023/04/05 12:40:12;;;;;;;;;;;18.30;47.20;;;;;;6252462;28;19915;-68
2023/04/05 12:43:18;;;;;;;;;;;18.30;45.80;;;;;;6269929;28;19959;-69
2023/04/05 12:46:19;;;;;;;;;;;18.30;45.30;;;;;;6263631;28;19915;-68
2023/04/05 12:49:19;;;;;;;;;;;18.30;45.90;;;;;;6270574;28;19912;-70
2023/04/05 12:52:20;;;;;;;;;;;18.20;45.30;;;;;;6269444;28;19911;-71
2023/04/05 12:55:21;;;;;;;;;;;18.30;45.90;;;;;;6251903;28;19999;-71
2023/04/05 12:58:30;;;;;;;;;;;18.20;44.80;;;;;;6265993;28;19917;-71
2023/04/05 13:01:31;;;;;;;;;;;18.20;43.80;;;;;;6227723;28;20328;-72
2023/04/05 13:04:32;;;;;;;;;;;18.20;42.20;;;;;;6242255;28;19960;-71
2023/04/05 13:07:32;;;;;;;;;;;18.30;42.50;;;;;;6248381;28;19928;-71
2023/04/05 13:10:33;;;;;;;;;;;18.30;42.40;;;;;;6249984;28;19909;-71
2023/04/05 13:13:34;;;;;;;;;;;18.30;42.70;;;;;;6268821;28;20398;-71
2023/04/05 13:16:34;;;;;;;;;;;18.30;43.00;;;;;;6251006;28;20481;-71
2023/04/05 13:19:35;;;;;;;;;;;18.30;43.00;;;;;;6269374;28;19909;-72
2023/04/05 13:22:36;;;;;;;;;;;18.30;43.20;;;;;;6257317;28;20319;-69
2023/04/05 13:25:37;;;;;;;;;;;18.30;44.10;;;;;;6243375;28;19924;-70
2023/04/05 13:28:38;;;;;;;;;;;18.30;43.90;;;;;;6226559;28;19909;-72
2023/04/05 13:31:39;;;;;;;;;;;18.30;44.20;;;;;;6253747;28;19908;-71
2023/04/05 13:34:41;;;;;;;;;;;18.30;44.50;;;;;;6262530;28;19913;-73
2023/04/05 13:37:41;;;;;;;;;;;18.30;44.60;;;;;;6225095;28;19913;-72
2023/04/05 13:40:42;;;;;;;;;;;18.30;44.70;;;;;;6220222;28;20379;-72
2023/04/05 13:43:43;;;;;;;;;;;18.30;44.80;;;;;;6231610;28;20387;-71
2023/04/05 13:46:44;;;;;;;;;;;18.30;45.30;;;;;;6227905;28;19909;-71
2023/04/05 13:49:45;;;;;;;;;;;18.30;45.20;;;;;;6267154;28;19948;-71
2023/04/05 13:52:45;;;;;;;;;;;18.30;45.20;;;;;;6233812;28;19944;-72
2023/04/05 13:55:46;;;;;;;;;;;18.30;45.30;;;;;;6226224;28;19917;-71
2023/04/05 13:58:46;;;;;;;;;;;18.30;45.50;;;;;;6242659;28;20000;-71
2023/04/05 14:01:47;;;;;;;;;;;18.30;45.60;;;;;;6226243;28;19913;-71
2023/04/05 14:04:48;;;;;;;;;;;18.30;45.70;;;;;;6228644;28;19917;-71
2023/04/05 14:07:49;;;;;;;;;;;18.30;45.90;;;;;;6258755;28;20267;-72
2023/04/05 14:10:50;;;;;;;;;;;18.30;46.00;;;;;;6255313;28;19909;-71
2023/04/05 14:13:50;;;;;;;;;;;18.30;46.00;;;;;;6268325;28;19912;-71
2023/04/05 14:16:51;;;;;;;;;;;18.30;46.20;;;;;;6272999;28;19916;-71
2023/04/05 14:19:52;;;;;;;;;;;18.30;46.30;;;;;;6273179;28;19909;-71
2023/04/05 14:22:52;;;;;;;;;;;18.30;46.30;;;;;;6254077;28;19908;-71
2023/04/05 14:25:53;;;;;;;;;;;18.30;46.50;;;;;;6273260;28;19908;-71
2023/04/05 14:28:54;;;;;;;;;;;18.30;46.50;;;;;;6272268;28;19909;-71
2023/04/05 14:31:55;;;;;;;;;;;18.30;46.60;;;;;;6250370;28;19913;-71
2023/04/05 14:34:56;;;;;;;;;;;18.30;46.70;;;;;;6247198;28;19910;-71
2023/04/05 14:37:57;;;;;;;;;;;18.30;46.70;;;;;;6247035;28;19917;-71
2023/04/05 14:40:57;;;;;;;;;;;18.30;47.00;;;;;;6229951;28;20014;-71
2023/04/05 14:43:58;;;;;;;;;;;18.30;47.00;;;;;;6246636;28;19923;-71
2023/04/05 14:46:59;;;;;;;;;;;18.30;46.50;;;;;;6249497;28;20422;-71
2023/04/05 14:49:59;;;;;;;;;;;18.30;47.10;;;;;;6247376;28;19916;-72
2023/04/05 14:53:00;;;;;;;;;;;18.30;47.00;;;;;;6239845;28;19912;-71
2023/04/05 14:56:01;;;;;;;;;;;18.30;47.20;;;;;;6265470;28;19952;-71
2023/04/05 14:59:01;;;;;;;;;;;18.30;47.30;;;;;;6229420;28;20291;-72
2023/04/05 15:02:02;;;;;;;;;;;18.30;47.20;;;;;;6223885;28;19910;-72
2023/04/05 15:05:04;;;;;;;;;;;18.30;47.40;;;;;;6229679;28;19913;-71
2023/04/05 15:08:04;;;;;;;;;;;18.30;47.00;;;;;;6224159;28;20431;-72
2023/04/05 15:11:05;;;;;;;;;;;18.30;47.40;;;;;;6222744;28;19914;-71
2023/04/05 15:14:06;;;;;;;;;;;18.30;47.30;;;;;;6205891;28;19916;-71
2023/04/05 15:17:07;;;;;;;;;;;18.30;47.40;;;;;;6245695;28;20455;-73
2023/04/05 15:20:07;;;;;;;;;;;18.30;47.40;;;;;;6219924;28;20365;-72
2023/04/05 15:23:08;;;;;;;;;;;18.30;47.50;;;;;;6221608;28;19977;-71
2023/04/05 15:26:08;;;;;;;;;;;18.30;47.60;;;;;;6228434;28;20403;-71
2023/04/05 15:29:09;;;;;;;;;;;18.30;47.60;;;;;;6221659;28;19917;-71
2023/04/05 15:32:10;;;;;;;;;;;18.30;47.50;;;;;;6222019;28;19910;-72
2023/04/05 15:35:10;;;;;;;;;;;18.30;47.60;;;;;;6203049;28;19909;-71
2023/04/05 15:38:11;;;;;;;;;;;18.30;47.60;;;;;;6215527;28;19928;-71
2023/04/05 15:41:12;;;;;;;;;;;18.30;47.90;;;;;;6242075;28;20428;-71
2023/04/05 15:44:13;;;;;;;;;;;18.30;47.90;;;;;;6202667;28;19914;-71
2023/04/05 15:47:13;;;;;;;;;;;18.30;48.00;;;;;;6221623;28;19916;-71
2023/04/05 15:50:15;;;;;;;;;;;18.30;47.90;;;;;;6225799;28;19963;-71
2023/04/05 15:53:16;;;;;;;;;;;18.30;48.00;;;;;;6244283;28;19917;-70
2023/04/05 15:56:17;;;;;;;;;;;18.30;48.00;;;;;;6229726;28;20512;-71
2023/04/05 15:59:17;;;;;;;;;;;18.30;48.00;;;;;;6230563;28;19948;-72
2023/04/05 16:02:19;;;;;;;;;;;18.30;48.10;;;;;;6228799;28;19916;-71
2023/04/05 16:05:19;;;;;;;;;;;18.30;48.20;;;;;;6253941;28;20382;-71
2023/04/05 16:08:20;;;;;;;;;;;18.30;48.20;;;;;;6270498;28;19915;-70
2023/04/05 16:11:21;;;;;;;;;;;18.30;48.20;;;;;;6270201;28;20016;-70
2023/04/05 16:14:21;;;;;;;;;;;18.30;48.20;;;;;;6243885;28;19916;-71
2023/04/05 16:17:24;;;;;;;;;;;18.30;48.20;;;;;;6246322;28;20360;-71
2023/04/05 16:20:24;;;;;;;;;;;18.30;48.40;;;;;;6268327;28;19912;-71
2023/04/05 16:23:25;;;;;;;;;;;18.30;48.40;;;;;;6226315;28;19920;-71
2023/04/05 16:26:26;;;;;;;;;;;18.30;48.30;;;;;;6224956;28;19916;-71
2023/04/05 16:29:26;;;;;;;;;;;18.30;48.30;;;;;;6248373;28;19916;-71
2023/04/05 16:32:27;;;;;;;;;;;18.30;48.50;;;;;;6267370;28;20359;-70
2023/04/05 16:35:30;;;;;;;;;;;18.30;48.50;;;;;;6247219;28;19932;-71
2023/04/05 16:38:31;;;;;;;;;;;18.30;48.50;;;;;;6253293;28;20645;-70
2023/04/05 16:41:33;;;;;;;;;;;18.30;48.30;;;;;;6224849;28;19909;-71
2023/04/05 16:44:33;;;;;;;;;;;18.30;48.60;;;;;;6235475;28;19921;-71
2023/04/05 16:47:34;;;;;;;;;;;18.30;49.40;;;;;;6242654;28;19963;-71
2023/04/05 16:50:35;;;;;;;;;;;18.30;48.40;;;;;;6254238;28;19940;-71
2023/04/05 16:53:35;;;;;;;;;;;18.30;48.70;;;;;;6267011;28;19916;-71
2023/04/05 16:56:36;;;;;;;;;;;18.30;48.70;;;;;;6267194;28;20004;-70
2023/04/05 16:59:37;;;;;;;;;;;18.30;48.30;;;;;;6230005;28;19913;-71
2023/04/05 17:02:37;;;;;;;;;;;18.30;48.40;;;;;;6241829;28;19917;-71
2023/04/05 17:05:39;;;;;;;;;;;18.30;48.50;;;;;;6235758;28;19920;-71
2023/04/05 17:08:40;;;;;;;;;;;18.30;48.50;;;;;;6250197;28;20371;-72
2023/04/05 17:11:40;;;;;;;;;;;18.30;48.70;;;;;;6249770;28;19916;-72
2023/04/05 17:14:41;;;;;;;;;;;18.30;48.80;;;;;;6237528;28;20037;-71
2023/04/05 17:17:42;;;;;;;;;;;18.30;48.80;;;;;;6267519;28;20008;-71
2023/04/05 17:20:42;;;;;;;;;;;18.30;48.90;;;;;;6244643;28;19909;-71
2023/04/05 17:23:43;;;;;;;;;;;18.30;48.90;;;;;;6217884;28;20361;-70
2023/04/05 17:26:44;;;;;;;;;;;18.30;48.90;;;;;;6238955;28;19917;-71
2023/04/05 17:29:45;;;;;;;;;;;18.30;49.00;;;;;;6242851;28;20592;-72
2023/04/05 17:32:46;;;;;;;;;;;18.30;48.80;;;;;;6249156;28;19920;-71
2023/04/05 17:35:47;;;;;;;;;;;18.30;49.00;;;;;;6248667;28;19963;-71